Time;durP1;ratioP1;P1;durP2;ratioP2;P2;SDS_P1;SDS_P2;PMS_P1;PMS_P2;Temp;Humidity;BMP_temperature;BMP_pressure;BME280_temperature;BME280_humidity;BME280_pressure;Samples;Min_cycle;Max_cycle;Signal;HPM_P1;HPM_P2
2022/11/18 00:01:05;;;;;;;;;;;20.90;47.60;;;;;;5054551;28;19913;-74
2022/11/18 00:03:31;;;;;;;;;;;20.80;47.40;;;;;;5034037;28;19956;-73
2022/11/18 00:05:56;;;;;;;;;;;20.80;47.60;;;;;;5013825;28;19948;-71
2022/11/18 00:08:22;;;;;;;;;;;20.80;47.90;;;;;;5017147;28;19916;-72
2022/11/18 00:10:47;;;;;;;;;;;20.70;49.10;;;;;;5053177;28;20283;-73
2022/11/18 00:16:04;;;;;;;;;;;20.50;48.90;;;;;;5037758;28;20350;-73
2022/11/18 00:18:29;;;;;;;;;;;20.50;49.00;;;;;;5035208;28;19932;-73
2022/11/18 00:20:59;;;;;;;;;;;20.40;48.60;;;;;;5052549;28;19913;-73
2022/11/18 00:23:24;;;;;;;;;;;20.40;48.60;;;;;;5028048;28;20265;-73
2022/11/18 00:25:49;;;;;;;;;;;20.40;49.00;;;;;;5051273;28;19913;-73
2022/11/18 00:28:15;;;;;;;;;;;20.40;48.80;;;;;;5050544;28;19912;-73
2022/11/18 00:30:40;;;;;;;;;;;20.40;48.90;;;;;;5047182;28;20349;-73
2022/11/18 00:33:06;;;;;;;;;;;20.40;48.40;;;;;;5033092;28;20413;-73
2022/11/18 00:35:31;;;;;;;;;;;20.30;48.80;;;;;;5040599;28;20040;-73
2022/11/18 00:37:57;;;;;;;;;;;20.30;48.80;;;;;;4962969;28;1841287;-73
2022/11/18 00:40:22;;;;;;;;;;;20.30;48.50;;;;;;5035850;28;19917;-73
2022/11/18 00:42:50;;;;;;;;;;;20.30;48.40;;;;;;5053894;28;19948;-73
2022/11/18 00:45:16;;;;;;;;;;;20.30;49.30;;;;;;5047042;28;20375;-73
2022/11/18 00:47:42;;;;;;;;;;;20.30;48.00;;;;;;5052412;28;19955;-72
2022/11/18 00:50:07;;;;;;;;;;;20.30;47.80;;;;;;5055380;28;19912;-73
2022/11/18 00:52:33;;;;;;;;;;;20.40;47.60;;;;;;5029062;28;19916;-73
2022/11/18 00:54:58;;;;;;;;;;;20.40;47.70;;;;;;5048105;28;19924;-72
2022/11/18 00:57:23;;;;;;;;;;;20.40;48.00;;;;;;5045341;28;19917;-72
2022/11/18 00:59:49;;;;;;;;;;;20.40;48.20;;;;;;5045847;28;19921;-73
2022/11/18 01:02:14;;;;;;;;;;;20.30;47.30;;;;;;5034999;28;20283;-73
2022/11/18 01:04:40;;;;;;;;;;;20.40;47.60;;;;;;5054439;28;19920;-72
2022/11/18 01:07:05;;;;;;;;;;;20.40;47.70;;;;;;5045463;28;20448;-72
2022/11/18 01:09:31;;;;;;;;;;;20.40;47.50;;;;;;5052731;28;20437;-73
2022/11/18 01:14:40;;;;;;;;;;;20.30;47.40;;;;;;5035086;28;20063;-71
2022/11/18 01:17:05;;;;;;;;;;;20.30;47.60;;;;;;5043469;28;20061;-72
2022/11/18 01:19:31;;;;;;;;;;;20.30;47.30;;;;;;5045825;28;20012;-72
2022/11/18 01:22:01;;;;;;;;;;;20.30;47.90;;;;;;5029974;28;20369;-73
2022/11/18 01:24:30;;;;;;;;;;;20.20;47.30;;;;;;5054768;28;20338;-72
2022/11/18 01:26:55;;;;;;;;;;;20.10;47.40;;;;;;5030559;28;19913;-73
2022/11/18 01:29:21;;;;;;;;;;;20.20;48.00;;;;;;5029384;28;19920;-72
2022/11/18 01:31:46;;;;;;;;;;;20.10;47.60;;;;;;5044633;28;20531;-72
2022/11/18 01:34:12;;;;;;;;;;;20.10;47.50;;;;;;5045846;28;20369;-71
2022/11/18 01:36:37;;;;;;;;;;;20.10;47.90;;;;;;5047278;28;19964;-72
2022/11/18 01:39:03;;;;;;;;;;;20.00;48.10;;;;;;5043691;28;19912;-72
2022/11/18 01:41:28;;;;;;;;;;;20.00;48.30;;;;;;5028815;28;19917;-72
2022/11/18 01:43:58;;;;;;;;;;;20.00;48.00;;;;;;5028719;28;20402;-72
2022/11/18 01:46:24;;;;;;;;;;;20.00;47.80;;;;;;5048593;28;20426;-72
2022/11/18 01:48:54;;;;;;;;;;;20.00;48.10;;;;;;5042948;28;19920;-72
2022/11/18 01:51:22;;;;;;;;;;;19.90;48.10;;;;;;5046136;28;19924;-72
2022/11/18 01:53:48;;;;;;;;;;;20.00;47.70;;;;;;5049495;28;19920;-72
2022/11/18 01:56:15;;;;;;;;;;;20.00;48.00;;;;;;5050198;28;20379;-72
2022/11/18 01:58:45;;;;;;;;;;;20.00;47.90;;;;;;5050849;28;19917;-73
2022/11/18 02:01:11;;;;;;;;;;;20.00;47.70;;;;;;5033600;28;20319;-73
2022/11/18 02:03:37;;;;;;;;;;;19.90;47.80;;;;;;5048434;28;19913;-72
2022/11/18 02:06:03;;;;;;;;;;;19.90;48.00;;;;;;5045190;28;19932;-72
2022/11/18 02:08:28;;;;;;;;;;;19.80;48.10;;;;;;5025007;28;20020;-73
2022/11/18 02:10:53;;;;;;;;;;;19.80;48.30;;;;;;5034568;28;19921;-73
2022/11/18 02:13:19;;;;;;;;;;;19.70;48.40;;;;;;5051203;28;19916;-73
2022/11/18 02:15:51;;;;;;;;;;;19.70;48.40;;;;;;5028192;28;19920;-73
2022/11/18 02:18:27;;;;;;;;;;;19.70;49.00;;;;;;5051905;28;19908;-73
2022/11/18 02:20:54;;;;;;;;;;;19.70;48.60;;;;;;5024499;28;19970;-72
2022/11/18 02:23:38;;;;;;;;;;;19.60;48.30;;;;;;5032325;28;19916;-72
2022/11/18 02:26:16;;;;;;;;;;;19.60;48.10;;;;;;5048613;28;19913;-72
2022/11/18 02:29:01;;;;;;;;;;;19.70;48.30;;;;;;5033946;28;19935;-73
2022/11/18 02:31:30;;;;;;;;;;;19.80;48.20;;;;;;5035111;28;19976;-73
2022/11/18 02:34:00;;;;;;;;;;;19.80;48.10;;;;;;5048800;28;19927;-73
2022/11/18 02:37:01;;;;;;;;;;;19.90;48.00;;;;;;5028243;28;20039;-73
2022/11/18 02:39:30;;;;;;;;;;;19.90;47.90;;;;;;4965906;28;20365;-72
2022/11/18 02:41:56;;;;;;;;;;;20.00;47.80;;;;;;5035636;28;19952;-72
2022/11/18 02:44:21;;;;;;;;;;;20.00;47.60;;;;;;5020253;28;20070;-73
2022/11/18 02:46:48;;;;;;;;;;;20.10;47.40;;;;;;5052770;28;19959;-73
2022/11/18 02:49:19;;;;;;;;;;;20.10;47.20;;;;;;5051769;28;19913;-73
2022/11/18 02:51:44;;;;;;;;;;;20.20;47.20;;;;;;5034015;28;19924;-73
2022/11/18 02:54:10;;;;;;;;;;;20.30;47.00;;;;;;5026839;28;19967;-73
2022/11/18 02:56:35;;;;;;;;;;;20.30;46.90;;;;;;5034427;28;20007;-73
2022/11/18 02:59:01;;;;;;;;;;;20.40;46.80;;;;;;5050789;28;19913;-73
2022/11/18 03:01:30;;;;;;;;;;;20.40;46.70;;;;;;5034791;28;20373;-73
2022/11/18 03:03:55;;;;;;;;;;;20.40;46.50;;;;;;5048637;28;19955;-73
2022/11/18 03:06:23;;;;;;;;;;;20.50;46.40;;;;;;5032702;28;19955;-72
2022/11/18 03:09:07;;;;;;;;;;;20.50;46.30;;;;;;5043423;28;19921;-73
2022/11/18 03:11:36;;;;;;;;;;;20.50;46.30;;;;;;5045389;28;19951;-73
2022/11/18 03:14:06;;;;;;;;;;;20.50;46.40;;;;;;5032541;28;19916;-73
2022/11/18 03:16:37;;;;;;;;;;;20.50;46.30;;;;;;5034494;28;19970;-74
2022/11/18 03:19:10;;;;;;;;;;;20.50;46.10;;;;;;5050672;28;20288;-73
2022/11/18 03:21:40;;;;;;;;;;;20.60;46.00;;;;;;5032665;28;19924;-73
2022/11/18 03:24:19;;;;;;;;;;;20.60;45.80;;;;;;5045397;28;19920;-73
2022/11/18 03:26:47;;;;;;;;;;;20.70;45.80;;;;;;5046430;28;19975;-73
2022/11/18 03:29:23;;;;;;;;;;;20.70;45.10;;;;;;5029602;28;19996;-73
2022/11/18 03:31:49;;;;;;;;;;;20.70;45.00;;;;;;5026678;28;19991;-73
2022/11/18 03:34:26;;;;;;;;;;;20.70;45.30;;;;;;5050342;28;20346;-73
2022/11/18 03:36:52;;;;;;;;;;;20.70;45.00;;;;;;5028851;28;19921;-73
2022/11/18 03:39:18;;;;;;;;;;;20.80;45.40;;;;;;5032604;28;19917;-72
2022/11/18 03:41:45;;;;;;;;;;;20.80;45.10;;;;;;5028934;28;19913;-73
2022/11/18 03:44:11;;;;;;;;;;;20.80;45.10;;;;;;5029161;28;19916;-72
2022/11/18 03:46:41;;;;;;;;;;;20.80;45.10;;;;;;5034120;28;19909;-73
2022/11/18 03:49:06;;;;;;;;;;;20.80;44.80;;;;;;5033066;28;19920;-73
2022/11/18 03:51:32;;;;;;;;;;;20.80;45.10;;;;;;5017434;28;20724;-73
2022/11/18 03:54:00;;;;;;;;;;;20.80;45.10;;;;;;5048549;28;19912;-73
2022/11/18 03:56:28;;;;;;;;;;;20.80;45.10;;;;;;5032957;28;20007;-72
2022/11/18 03:58:56;;;;;;;;;;;20.70;45.10;;;;;;5011866;28;19923;-72
2022/11/18 04:01:30;;;;;;;;;;;20.70;45.00;;;;;;5049769;28;20389;-71
2022/11/18 04:03:56;;;;;;;;;;;20.70;45.20;;;;;;5044927;28;19934;-74
2022/11/18 04:06:51;;;;;;;;;;;20.70;45.10;;;;;;5050304;28;20007;-73
2022/11/18 04:09:20;;;;;;;;;;;20.70;45.30;;;;;;4979730;28;19910;-73
2022/11/18 04:12:01;;;;;;;;;;;20.70;45.30;;;;;;5031733;28;19917;-73
2022/11/18 04:14:27;;;;;;;;;;;20.70;45.30;;;;;;5045237;28;20304;-73
2022/11/18 04:16:52;;;;;;;;;;;20.60;45.30;;;;;;5026464;28;19943;-73
2022/11/18 04:19:18;;;;;;;;;;;20.60;45.40;;;;;;5032105;28;19924;-74
2022/11/18 04:21:44;;;;;;;;;;;20.60;45.70;;;;;;5036217;28;20439;-73
2022/11/18 04:24:09;;;;;;;;;;;20.50;45.50;;;;;;5032651;28;20394;-73
2022/11/18 04:26:35;;;;;;;;;;;20.50;45.40;;;;;;5034770;28;20397;-72
2022/11/18 04:29:00;;;;;;;;;;;20.50;45.50;;;;;;5040747;28;19917;-71
2022/11/18 04:31:26;;;;;;;;;;;20.50;45.50;;;;;;5047235;28;19917;-72
2022/11/18 04:33:51;;;;;;;;;;;20.50;45.50;;;;;;5051400;28;19996;-73
2022/11/18 04:36:18;;;;;;;;;;;20.50;46.00;;;;;;5053666;28;19956;-73
2022/11/18 04:38:44;;;;;;;;;;;20.50;45.70;;;;;;5038723;28;19924;-73
2022/11/18 04:41:09;;;;;;;;;;;20.50;45.60;;;;;;5052885;28;19916;-73
2022/11/18 04:43:35;;;;;;;;;;;20.50;45.60;;;;;;5051537;28;20292;-73
2022/11/18 04:46:00;;;;;;;;;;;20.50;45.70;;;;;;5043812;28;20641;-73
2022/11/18 04:48:25;;;;;;;;;;;20.50;45.70;;;;;;5052562;28;20387;-72
2022/11/18 04:50:51;;;;;;;;;;;20.50;45.70;;;;;;5052003;28;20254;-73
2022/11/18 04:53:16;;;;;;;;;;;20.50;45.60;;;;;;5052937;28;20296;-72
2022/11/18 04:55:42;;;;;;;;;;;20.50;45.60;;;;;;5054014;28;20331;-73
2022/11/18 04:58:07;;;;;;;;;;;20.50;45.70;;;;;;5053131;28;19912;-73
2022/11/18 05:00:33;;;;;;;;;;;20.50;45.70;;;;;;5052840;28;19921;-72
2022/11/18 05:02:58;;;;;;;;;;;20.50;45.60;;;;;;5046637;28;19939;-72
2022/11/18 05:05:23;;;;;;;;;;;20.50;45.50;;;;;;5054132;28;19943;-73
2022/11/18 05:07:49;;;;;;;;;;;20.50;45.70;;;;;;5031474;28;19971;-72
2022/11/18 05:10:15;;;;;;;;;;;20.40;45.50;;;;;;5049705;28;19928;-73
2022/11/18 05:12:49;;;;;;;;;;;20.50;45.70;;;;;;5047418;28;19921;-73
2022/11/18 05:15:15;;;;;;;;;;;20.50;45.60;;;;;;5053894;28;19921;-73
2022/11/18 05:17:41;;;;;;;;;;;20.40;45.60;;;;;;5034138;28;19936;-72
2022/11/18 05:20:06;;;;;;;;;;;20.40;45.60;;;;;;5030156;28;19970;-72
2022/11/18 05:22:32;;;;;;;;;;;20.40;45.70;;;;;;5035302;28;19909;-72
2022/11/18 05:24:57;;;;;;;;;;;20.40;45.70;;;;;;5052586;28;19913;-73
2022/11/18 05:27:23;;;;;;;;;;;20.40;45.80;;;;;;5050657;28;19946;-72
2022/11/18 05:29:48;;;;;;;;;;;20.40;45.70;;;;;;5052148;28;20427;-73
2022/11/18 05:32:14;;;;;;;;;;;20.40;45.80;;;;;;5052193;28;20388;-73
2022/11/18 05:34:39;;;;;;;;;;;20.40;45.80;;;;;;5034502;28;19964;-72
2022/11/18 05:37:05;;;;;;;;;;;20.40;45.60;;;;;;5028484;28;19935;-73
2022/11/18 05:39:31;;;;;;;;;;;20.40;45.60;;;;;;5036909;28;20001;-72
2022/11/18 05:44:41;;;;;;;;;;;20.40;45.60;;;;;;5051537;28;19924;-73
2022/11/18 05:47:06;;;;;;;;;;;20.40;45.60;;;;;;5034432;28;19912;-73
2022/11/18 05:49:32;;;;;;;;;;;20.40;45.60;;;;;;5054747;28;20391;-72
2022/11/18 05:51:57;;;;;;;;;;;20.30;45.50;;;;;;5048301;28;19928;-72
2022/11/18 05:54:22;;;;;;;;;;;20.30;45.40;;;;;;5051820;28;19919;-73
2022/11/18 05:56:48;;;;;;;;;;;20.30;45.40;;;;;;5035892;28;19935;-73
2022/11/18 05:59:13;;;;;;;;;;;20.30;45.50;;;;;;5049995;28;19913;-72
2022/11/18 06:02:05;;;;;;;;;;;20.30;45.60;;;;;;5034314;28;19955;-73
2022/11/18 06:04:31;;;;;;;;;;;20.30;45.60;;;;;;5041930;28;19944;-73
2022/11/18 06:07:01;;;;;;;;;;;20.30;45.50;;;;;;5049222;28;19956;-73
2022/11/18 06:09:27;;;;;;;;;;;20.30;45.60;;;;;;5047729;28;19920;-73
2022/11/18 06:11:54;;;;;;;;;;;20.30;45.60;;;;;;5034570;28;19912;-73
2022/11/18 06:14:21;;;;;;;;;;;20.30;45.50;;;;;;5053338;28;19944;-72
2022/11/18 06:16:48;;;;;;;;;;;20.30;45.60;;;;;;5052907;28;20421;-73
2022/11/18 06:19:13;;;;;;;;;;;20.30;45.60;;;;;;5046821;28;19959;-73
2022/11/18 06:21:39;;;;;;;;;;;20.20;45.50;;;;;;5032759;28;19913;-72
2022/11/18 06:24:06;;;;;;;;;;;20.20;45.40;;;;;;5050260;28;20411;-72
2022/11/18 06:26:31;;;;;;;;;;;20.20;45.40;;;;;;5043267;28;19913;-72
2022/11/18 06:28:56;;;;;;;;;;;20.20;45.40;;;;;;5049217;28;20565;-72
2022/11/18 06:31:22;;;;;;;;;;;20.20;45.40;;;;;;5051421;28;20317;-72
2022/11/18 06:33:47;;;;;;;;;;;20.20;45.30;;;;;;5034631;28;19917;-73
2022/11/18 06:36:13;;;;;;;;;;;20.20;45.50;;;;;;5050973;28;19920;-72
2022/11/18 06:38:38;;;;;;;;;;;20.20;45.40;;;;;;5050993;28;19980;-73
2022/11/18 06:41:04;;;;;;;;;;;20.20;45.40;;;;;;5028126;28;19995;-73
2022/11/18 06:43:40;;;;;;;;;;;20.20;45.40;;;;;;5043484;28;19912;-73
2022/11/18 06:48:56;;;;;;;;;;;20.20;45.30;;;;;;5046698;28;19930;-72
2022/11/18 06:51:22;;;;;;;;;;;20.20;45.20;;;;;;5049396;28;19995;-73
2022/11/18 06:53:47;;;;;;;;;;;20.20;45.10;;;;;;5010695;28;19913;-73
2022/11/18 06:56:13;;;;;;;;;;;20.20;45.10;;;;;;5051923;28;19919;-73
2022/11/18 06:58:39;;;;;;;;;;;20.20;45.10;;;;;;5028931;28;19912;-73
2022/11/18 07:01:08;;;;;;;;;;;20.20;45.10;;;;;;5046880;28;20669;-72
2022/11/18 07:03:33;;;;;;;;;;;20.20;45.10;;;;;;5051612;28;19913;-73
2022/11/18 07:05:58;;;;;;;;;;;20.10;45.00;;;;;;5032938;28;19913;-73
2022/11/18 07:08:24;;;;;;;;;;;20.10;45.00;;;;;;5048957;28;19923;-73
2022/11/18 07:10:52;;;;;;;;;;;20.10;45.00;;;;;;5050900;28;19923;-73
2022/11/18 07:13:18;;;;;;;;;;;20.10;45.10;;;;;;5043670;28;19927;-72
2022/11/18 07:15:43;;;;;;;;;;;20.10;44.90;;;;;;5047413;28;19917;-72
2022/11/18 07:18:09;;;;;;;;;;;20.10;45.00;;;;;;5029288;28;19972;-74
2022/11/18 07:20:34;;;;;;;;;;;20.10;44.90;;;;;;5047820;28;19921;-73
2022/11/18 07:23:00;;;;;;;;;;;20.10;44.80;;;;;;5026945;28;19917;-72
2022/11/18 07:25:25;;;;;;;;;;;20.10;44.90;;;;;;5049983;28;19909;-73
2022/11/18 07:27:50;;;;;;;;;;;20.10;44.90;;;;;;5049141;28;20008;-73
2022/11/18 07:30:16;;;;;;;;;;;20.10;44.90;;;;;;5024869;28;19913;-73
2022/11/18 07:32:41;;;;;;;;;;;20.10;44.60;;;;;;5048310;28;19943;-72
2022/11/18 07:35:07;;;;;;;;;;;20.10;44.80;;;;;;5049510;28;19913;-73
2022/11/18 07:37:33;;;;;;;;;;;20.10;44.80;;;;;;5049526;28;19920;-73
2022/11/18 07:39:58;;;;;;;;;;;20.10;44.70;;;;;;5046860;28;19912;-73
2022/11/18 07:42:24;;;;;;;;;;;20.10;44.70;;;;;;5034075;28;19913;-72
2022/11/18 07:44:49;;;;;;;;;;;20.10;44.60;;;;;;5048644;28;20450;-73
2022/11/18 07:47:15;;;;;;;;;;;20.10;44.50;;;;;;5028103;28;19935;-73
2022/11/18 07:49:40;;;;;;;;;;;20.10;44.70;;;;;;5032554;28;19919;-73
2022/11/18 07:52:06;;;;;;;;;;;20.10;44.80;;;;;;5028572;28;19922;-73
2022/11/18 07:54:31;;;;;;;;;;;20.00;44.80;;;;;;5050745;28;19913;-73
2022/11/18 07:56:56;;;;;;;;;;;20.10;44.60;;;;;;5050124;28;19921;-73
2022/11/18 07:59:22;;;;;;;;;;;20.00;44.70;;;;;;5053503;28;19917;-73
2022/11/18 08:01:47;;;;;;;;;;;20.10;44.80;;;;;;5050739;28;19928;-72
2022/11/18 08:04:14;;;;;;;;;;;20.00;44.80;;;;;;5047865;28;19909;-73
2022/11/18 08:06:39;;;;;;;;;;;20.00;44.70;;;;;;5035410;28;19909;-72
2022/11/18 08:09:05;;;;;;;;;;;20.00;44.40;;;;;;5038344;28;19966;-73
2022/11/18 08:11:30;;;;;;;;;;;20.10;44.50;;;;;;5051083;28;19920;-73
2022/11/18 08:13:56;;;;;;;;;;;20.20;44.40;;;;;;5036971;28;20098;-73
2022/11/18 08:16:22;;;;;;;;;;;20.20;44.20;;;;;;5036968;28;19920;-73
2022/11/18 08:18:47;;;;;;;;;;;20.20;44.00;;;;;;5033268;28;19913;-73
2022/11/18 08:21:13;;;;;;;;;;;20.20;44.20;;;;;;5048154;28;19913;-72
2022/11/18 08:23:39;;;;;;;;;;;20.10;44.40;;;;;;5049882;28;19913;-72
2022/11/18 08:26:07;;;;;;;;;;;20.10;44.40;;;;;;5036501;28;19967;-74
2022/11/18 08:28:33;;;;;;;;;;;20.10;44.50;;;;;;5034877;28;19913;-73
2022/11/18 08:30:58;;;;;;;;;;;20.10;44.50;;;;;;5051460;28;19920;-73
2022/11/18 08:33:24;;;;;;;;;;;20.00;44.50;;;;;;5033608;28;20191;-73
2022/11/18 08:35:49;;;;;;;;;;;20.00;44.40;;;;;;5031544;28;19925;-73
2022/11/18 08:38:15;;;;;;;;;;;20.00;44.40;;;;;;5029903;28;20011;-72
2022/11/18 08:40:40;;;;;;;;;;;20.00;44.40;;;;;;5050123;28;19913;-72
2022/11/18 08:43:08;;;;;;;;;;;20.00;44.50;;;;;;5031622;28;20003;-72
2022/11/18 08:45:33;;;;;;;;;;;20.10;44.50;;;;;;5028280;28;19921;-73
2022/11/18 08:47:58;;;;;;;;;;;20.30;44.70;;;;;;5049202;28;20296;-72
2022/11/18 08:50:24;;;;;;;;;;;20.40;44.50;;;;;;5051209;28;19920;-72
2022/11/18 08:52:49;;;;;;;;;;;20.60;44.30;;;;;;5010013;28;19920;-73
2022/11/18 08:55:15;;;;;;;;;;;20.70;43.90;;;;;;5017178;28;19920;-72
2022/11/18 08:57:40;;;;;;;;;;;20.80;43.80;;;;;;5043572;28;19920;-73
2022/11/18 09:00:07;;;;;;;;;;;20.90;43.80;;;;;;5048529;28;19963;-73
2022/11/18 09:02:32;;;;;;;;;;;21.00;43.80;;;;;;5051725;28;20460;-72
2022/11/18 09:04:57;;;;;;;;;;;21.10;43.70;;;;;;5035319;28;20000;-73
2022/11/18 09:07:23;;;;;;;;;;;21.10;43.60;;;;;;5031166;28;19920;-72
2022/11/18 09:09:48;;;;;;;;;;;21.20;43.70;;;;;;5032879;28;19931;-73
2022/11/18 09:12:16;;;;;;;;;;;21.20;43.70;;;;;;5050409;28;19919;-72
2022/11/18 09:14:42;;;;;;;;;;;21.20;43.80;;;;;;5033157;28;19920;-72
2022/11/18 09:17:07;;;;;;;;;;;21.20;43.80;;;;;;5047059;28;20046;-76
2022/11/18 09:19:33;;;;;;;;;;;21.20;43.70;;;;;;5044508;28;19913;-76
2022/11/18 09:21:58;;;;;;;;;;;21.30;43.60;;;;;;5035741;28;19917;-73
2022/11/18 09:24:23;;;;;;;;;;;21.20;42.90;;;;;;5051390;28;20000;-75
2022/11/18 09:26:49;;;;;;;;;;;21.20;43.00;;;;;;5032542;28;19955;-73
2022/11/18 09:29:14;;;;;;;;;;;21.20;43.10;;;;;;5051409;28;19921;-74
2022/11/18 09:31:40;;;;;;;;;;;21.20;43.20;;;;;;5042481;28;19913;-74
2022/11/18 09:34:05;;;;;;;;;;;21.20;43.30;;;;;;5044851;28;19913;-73
2022/11/18 09:36:31;;;;;;;;;;;21.20;43.30;;;;;;5042988;28;19924;-73
2022/11/18 09:38:58;;;;;;;;;;;21.20;43.40;;;;;;5032274;28;19963;-72
2022/11/18 09:41:36;;;;;;;;;;;21.30;43.50;;;;;;5030172;28;20361;-73
2022/11/18 09:44:07;;;;;;;;;;;21.30;43.50;;;;;;5031838;28;19913;-73
2022/11/18 09:46:37;;;;;;;;;;;21.30;43.50;;;;;;5032550;28;20023;-73
2022/11/18 09:49:13;;;;;;;;;;;21.40;43.60;;;;;;5029986;28;19923;-73
2022/11/18 09:51:39;;;;;;;;;;;21.40;43.60;;;;;;5029810;28;19924;-73
2022/11/18 09:54:07;;;;;;;;;;;21.40;43.60;;;;;;5015466;28;19927;-73
2022/11/18 09:56:32;;;;;;;;;;;21.40;43.60;;;;;;5032361;28;20444;-73
2022/11/18 09:58:58;;;;;;;;;;;21.40;43.60;;;;;;5051152;28;19920;-73
2022/11/18 10:01:23;;;;;;;;;;;21.40;43.60;;;;;;5032167;28;20003;-73
2022/11/18 10:03:49;;;;;;;;;;;21.40;43.60;;;;;;5031359;28;19913;-73
2022/11/18 10:06:20;;;;;;;;;;;21.40;43.60;;;;;;5047662;28;19920;-72
2022/11/18 10:09:05;;;;;;;;;;;21.40;43.60;;;;;;5029457;28;20339;-73
2022/11/18 10:11:34;;;;;;;;;;;21.40;43.60;;;;;;5040959;28;19924;-74
2022/11/18 10:14:12;;;;;;;;;;;21.40;43.60;;;;;;5033889;28;19946;-73
2022/11/18 10:16:49;;;;;;;;;;;21.40;43.60;;;;;;5045363;28;19917;-73
2022/11/18 10:19:20;;;;;;;;;;;21.40;43.60;;;;;;5052125;28;19994;-73
2022/11/18 10:22:04;;;;;;;;;;;21.40;43.60;;;;;;5043965;28;19912;-73
2022/11/18 10:24:32;;;;;;;;;;;21.40;43.60;;;;;;5044338;28;19924;-73
2022/11/18 10:26:58;;;;;;;;;;;21.40;43.50;;;;;;5025522;28;19968;-72
2022/11/18 10:29:23;;;;;;;;;;;21.40;43.60;;;;;;5034632;28;20001;-72
2022/11/18 10:32:01;;;;;;;;;;;21.40;43.60;;;;;;5042233;28;19913;-73
2022/11/18 10:34:26;;;;;;;;;;;21.40;43.70;;;;;;5046003;28;19913;-73
2022/11/18 10:36:58;;;;;;;;;;;21.40;43.70;;;;;;5049867;28;19925;-73
2022/11/18 10:39:24;;;;;;;;;;;21.40;43.70;;;;;;5033170;28;19948;-73
2022/11/18 10:41:53;;;;;;;;;;;21.40;43.80;;;;;;5051670;28;19963;-72
2022/11/18 10:44:32;;;;;;;;;;;21.40;43.70;;;;;;5033367;28;19913;-73
2022/11/18 10:47:16;;;;;;;;;;;21.40;43.70;;;;;;5025136;28;19967;-72
2022/11/18 10:49:42;;;;;;;;;;;21.40;43.70;;;;;;5046058;28;19912;-72
2022/11/18 10:52:10;;;;;;;;;;;21.40;43.70;;;;;;5027987;28;19920;-73
2022/11/18 10:54:35;;;;;;;;;;;21.40;43.70;;;;;;5031642;28;20077;-72
2022/11/18 10:57:00;;;;;;;;;;;21.50;43.80;;;;;;5050452;28;20487;-72
2022/11/18 10:59:30;;;;;;;;;;;21.50;43.70;;;;;;5048842;28;20369;-72
2022/11/18 11:02:14;;;;;;;;;;;21.50;43.70;;;;;;5029848;28;19916;-72
2022/11/18 11:04:40;;;;;;;;;;;21.50;43.70;;;;;;5048792;28;19917;-73
2022/11/18 11:07:20;;;;;;;;;;;21.50;43.80;;;;;;5032619;28;19923;-73
2022/11/18 11:09:48;;;;;;;;;;;21.50;43.80;;;;;;5032443;28;20011;-73
2022/11/18 11:12:14;;;;;;;;;;;21.50;43.80;;;;;;5030111;28;19951;-73
2022/11/18 11:14:52;;;;;;;;;;;21.50;43.80;;;;;;5033005;28;20362;-72
2022/11/18 11:17:24;;;;;;;;;;;21.50;43.90;;;;;;5021702;28;19917;-72
2022/11/18 11:19:53;;;;;;;;;;;21.40;43.80;;;;;;5032313;28;19920;-72
2022/11/18 11:22:18;;;;;;;;;;;21.50;43.80;;;;;;5047116;28;20004;-73
2022/11/18 11:24:44;;;;;;;;;;;21.40;43.80;;;;;;5044172;28;20083;-73
2022/11/18 11:27:19;;;;;;;;;;;21.50;43.90;;;;;;5049917;28;20012;-73
2022/11/18 11:30:10;;;;;;;;;;;21.50;43.80;;;;;;5044720;28;19939;-73
2022/11/18 11:32:54;;;;;;;;;;;21.50;43.90;;;;;;5044155;28;19966;-72
2022/11/18 11:35:27;;;;;;;;;;;21.50;43.80;;;;;;5048338;28;20227;-73
2022/11/18 11:38:11;;;;;;;;;;;21.50;43.80;;;;;;5034502;28;19929;-72
2022/11/18 11:40:43;;;;;;;;;;;21.50;43.80;;;;;;5051703;28;19913;-72
2022/11/18 11:43:22;;;;;;;;;;;21.50;43.80;;;;;;5034745;28;19991;-74
2022/11/18 11:45:54;;;;;;;;;;;21.50;43.80;;;;;;5035251;28;20420;-73
2022/11/18 11:48:22;;;;;;;;;;;21.60;43.70;;;;;;5055050;28;19938;-72
2022/11/18 11:50:52;;;;;;;;;;;21.70;43.60;;;;;;5052123;28;20280;-72
2022/11/18 11:53:36;;;;;;;;;;;21.80;43.40;;;;;;5037235;28;19909;-72
2022/11/18 11:56:02;;;;;;;;;;;21.90;43.20;;;;;;5052325;28;19964;-73
2022/11/18 11:58:41;;;;;;;;;;;22.00;42.90;;;;;;5052851;28;19971;-71
2022/11/18 12:01:26;;;;;;;;;;;22.10;42.80;;;;;;5030912;28;19956;-72
2022/11/18 12:03:53;;;;;;;;;;;22.20;42.70;;;;;;5036307;28;19913;-72
2022/11/18 12:06:19;;;;;;;;;;;22.30;42.60;;;;;;5036698;28;19919;-73
2022/11/18 12:08:49;;;;;;;;;;;22.30;42.40;;;;;;5053077;28;19920;-73
2022/11/18 12:11:35;;;;;;;;;;;22.40;42.50;;;;;;5031702;28;20335;-73
2022/11/18 12:14:11;;;;;;;;;;;22.40;42.30;;;;;;5050112;28;20005;-74
2022/11/18 12:16:56;;;;;;;;;;;22.40;42.30;;;;;;5033225;28;19939;-72
2022/11/18 12:19:21;;;;;;;;;;;22.50;42.30;;;;;;5049075;28;19917;-72
2022/11/18 12:21:59;;;;;;;;;;;22.50;42.10;;;;;;5035386;28;19912;-74
2022/11/18 12:24:29;;;;;;;;;;;22.50;42.10;;;;;;5052075;28;20378;-73
2022/11/18 12:26:55;;;;;;;;;;;22.60;42.00;;;;;;5058419;28;19952;-72
2022/11/18 12:29:21;;;;;;;;;;;22.60;42.00;;;;;;5030145;28;19952;-73
2022/11/18 12:31:51;;;;;;;;;;;22.60;42.10;;;;;;5052392;28;19913;-72
2022/11/18 12:34:27;;;;;;;;;;;22.70;42.10;;;;;;5048944;28;19913;-71
2022/11/18 12:36:53;;;;;;;;;;;22.70;42.00;;;;;;5020587;28;19947;-72
2022/11/18 12:39:24;;;;;;;;;;;22.70;42.10;;;;;;5026449;28;19921;-73
2022/11/18 12:44:40;;;;;;;;;;;22.70;41.90;;;;;;5033085;28;19924;-72
2022/11/18 12:47:15;;;;;;;;;;;22.70;42.00;;;;;;5017389;28;19958;-72
2022/11/18 12:49:44;;;;;;;;;;;22.70;42.00;;;;;;5029318;28;20004;-72
2022/11/18 12:52:35;;;;;;;;;;;22.70;42.00;;;;;;5023167;28;19917;-72
2022/11/18 12:55:02;;;;;;;;;;;22.70;42.00;;;;;;4985213;28;19910;-73
2022/11/18 12:57:32;;;;;;;;;;;22.70;42.10;;;;;;5029541;28;19947;-72
2022/11/18 12:59:57;;;;;;;;;;;22.70;42.10;;;;;;5031639;28;20373;-72
2022/11/18 13:02:26;;;;;;;;;;;22.70;41.90;;;;;;5026945;28;19928;-73
2022/11/18 13:05:02;;;;;;;;;;;22.70;41.80;;;;;;5032148;28;20289;-73
2022/11/18 13:10:19;;;;;;;;;;;22.70;41.70;;;;;;5024383;28;19921;-73
2022/11/18 13:12:44;;;;;;;;;;;22.80;41.50;;;;;;5031777;28;20369;-73
2022/11/18 13:18:03;;;;;;;;;;;22.80;41.60;;;;;;5032057;28;19955;-73
2022/11/18 13:20:31;;;;;;;;;;;22.80;41.70;;;;;;5032099;28;19920;-74
2022/11/18 13:25:44;;;;;;;;;;;22.90;41.80;;;;;;5028115;28;19959;-73
2022/11/18 13:28:28;;;;;;;;;;;22.90;41.70;;;;;;5027732;28;19917;-72
2022/11/18 13:30:59;;;;;;;;;;;22.90;41.60;;;;;;5020980;28;20241;-73
2022/11/18 13:33:24;;;;;;;;;;;22.90;42.30;;;;;;5015069;28;19909;-73
2022/11/18 13:35:50;;;;;;;;;;;22.90;41.70;;;;;;5026552;28;19925;-74
2022/11/18 13:38:20;;;;;;;;;;;22.90;41.80;;;;;;5042906;28;19925;-73
2022/11/18 13:41:07;;;;;;;;;;;23.00;41.90;;;;;;5034014;28;19916;-72
2022/11/18 13:43:33;;;;;;;;;;;23.00;41.90;;;;;;5053413;28;20284;-73
2022/11/18 13:45:58;;;;;;;;;;;23.00;42.00;;;;;;5031683;28;19916;-74
2022/11/18 13:48:24;;;;;;;;;;;23.00;41.90;;;;;;5032489;28;20261;-73
2022/11/18 13:50:52;;;;;;;;;;;23.00;42.00;;;;;;5026713;28;19921;-75
2022/11/18 13:53:24;;;;;;;;;;;23.00;42.20;;;;;;5022257;28;19913;-73
2022/11/18 13:55:54;;;;;;;;;;;22.90;42.30;;;;;;5051425;28;20304;-73
2022/11/18 13:58:22;;;;;;;;;;;22.90;42.40;;;;;;5027789;28;19913;-73
2022/11/18 14:00:59;;;;;;;;;;;22.80;42.40;;;;;;5045162;28;19996;-73
2022/11/18 14:03:29;;;;;;;;;;;22.80;42.50;;;;;;5034478;28;19916;-73
2022/11/18 14:05:55;;;;;;;;;;;22.80;42.60;;;;;;5031228;28;19995;-72
2022/11/18 14:08:30;;;;;;;;;;;22.80;42.70;;;;;;5028265;28;19917;-74
2022/11/18 14:10:55;;;;;;;;;;;22.80;42.80;;;;;;5032572;28;19927;-73
2022/11/18 14:13:25;;;;;;;;;;;22.80;42.90;;;;;;5018044;28;19913;-73
2022/11/18 14:15:52;;;;;;;;;;;22.80;43.00;;;;;;5052006;28;19940;-72
2022/11/18 14:18:38;;;;;;;;;;;22.70;43.00;;;;;;5050862;28;20386;-73
2022/11/18 14:21:03;;;;;;;;;;;22.70;42.80;;;;;;5051660;28;20262;-72
2022/11/18 14:23:30;;;;;;;;;;;22.60;43.40;;;;;;5045645;28;19924;-72
2022/11/18 14:25:56;;;;;;;;;;;22.50;42.60;;;;;;5034798;28;20262;-71
2022/11/18 14:28:32;;;;;;;;;;;22.40;42.50;;;;;;5034260;28;19917;-71
2022/11/18 14:31:06;;;;;;;;;;;22.30;42.50;;;;;;5035133;28;19909;-71
2022/11/18 14:33:37;;;;;;;;;;;22.30;42.40;;;;;;5050088;28;19913;-71
2022/11/18 14:36:10;;;;;;;;;;;22.20;42.20;;;;;;5051067;28;19920;-72
2022/11/18 14:38:38;;;;;;;;;;;22.20;42.20;;;;;;5049147;28;20422;-72
2022/11/18 14:41:05;;;;;;;;;;;22.10;42.00;;;;;;5031801;28;20393;-73
2022/11/18 14:43:31;;;;;;;;;;;22.10;42.00;;;;;;5029334;28;19920;-72
2022/11/18 14:46:03;;;;;;;;;;;22.10;41.80;;;;;;5049991;28;20292;-72